Terminal Aerodrome Forecast
Issued by NWS Buffalo, NY

Current Version | Previous Version | Text Only | Print | Product List | Glossary On
Versions: 1 2 3 4 5 6 7 8 9 10 11 12 13 14 15 16 17 18 19 20 21 22 23 24 25 26 27 28
637
FTUS41 KBUF 110538
TAFART
TAF
KART 110538Z 1106/1206 VRB03KT P6SM BKN040
     FM110900 VRB03KT P6SM VCSH BKN040
     FM111300 20006KT 2SM -SHSN OVC020
     FM111700 19008KT P6SM BKN050
     FM112300 16007KT 4SM -SN OVC025
     FM120300 16010KT 2SM -SN OVC015=

USA.gov is the U.S. government's official web portal to all federal, state and local government web resources and services.